Morrisville, VT

4:59 AM EST on February 01, 2015 (GMT -0500)
Morristown Corners | Change Station
CLOSE
Current Station
Personal Weather Station
Location: Morrisville, VT
Elevation: 745 ft
Nearby Weather Stations
Active Advisory: Winter Weather Advisory

Elev 745 ft 44.56 °N, 72.62 °W | Updated 54 seconds ago

Overcast
Overcast
-3.1 °F
Feels Like -3 °F
N
0.0
Wind Variable Wind from NNW

Today
High -- | Low -- °F
--% Chance of Precip.
Yesterday
High -- | Low -- °F
Precip. -- in
7:09 AM 4:59 PM
Waxing Gibbous, 94% visible
Pressure 30.14 in
Visibility 8.0 miles
Clouds Overcast 2400 ft
Windchill -3 °F
Dew Point -5 °F
Humidity 90%
Rainfall 0.00 in
Snow Depth Not available.
UV 0 out of 12
Pollen .10 out of 12
Air Quality Not available.
Flu Activity Not available.
METAR KMVL 010954Z AUTO 30004KT 8SM OVC024 M16/M19 A3007 RMK AO2 SNB36E46 SLP204 P0000 T11561189 TSNO

More Conditions Fewer Conditions

Pressure 30.14 in
Visibility 8.0 miles
Clouds Overcast 2400 ft
Windchill -3 °F
Dew Point -5 °F
Humidity 90%
Rainfall 0.00 in
Snow Depth Not available.
UV 0 out of 12
Pollen .10 out of 12
Air Quality Not available.
Flu Activity Not available.
METAR KMVL 010954Z AUTO 30004KT 8SM OVC024 M16/M19 A3007 RMK AO2 SNB36E46 SLP204 P0000 T11561189 TSNO

More Conditions Fewer Conditions

10-Day Weather Forecast

Almanac

Astronomy

Feb. 01, 2015 Rise Set
Actual Time
Civil Twilight
Nautical Twilight
Astronomical Twilight
Moon
Length of Visible Light
Length of Day
Tomorrow will be .
, % of the Moon is Illuminated

Today's Extremes

State Highs State Lows

Community

WunderPhotos

Upload Photos

1,792,354 photos uploaded!

WunderBlogs® & News

Nearby

Air Quality

  Air Quality AQ Index Pollutant
Not available.

Snow Depth

Station Depth Elevation

Earthquake Activity

City Distance Mag. Time & Date
Minimum magnitude displayed is 2.5.

Coastal Water Temperatures

Place Temperature

Nearby Weather Stations